createdAt,value
2022-07-25T00:00:24.012Z,100240.95
2022-07-25T00:01:30.333Z,100228.23
2022-07-25T00:02:33.546Z,100236.00
2022-07-25T00:03:37.232Z,100240.17
2022-07-25T00:04:42.246Z,100233.53
2022-07-25T00:05:45.987Z,100238.84
2022-07-25T00:06:49.015Z,100234.19
2022-07-25T00:07:51.968Z,100243.36
2022-07-25T00:08:54.991Z,100235.92
2022-07-25T00:09:58.052Z,100237.63
2022-07-25T00:11:01.197Z,100231.86
2022-07-25T00:12:04.312Z,100235.19
2022-07-25T00:13:09.024Z,100227.75
2022-07-25T00:14:12.039Z,100224.44
2022-07-25T00:15:15.122Z,100223.61
2022-07-25T00:16:19.182Z,100234.41
2022-07-25T00:17:22.301Z,100232.19
2022-07-25T00:18:25.277Z,100225.22
2022-07-25T00:19:28.342Z,100230.20
2022-07-25T00:20:31.549Z,100230.70
2022-07-25T00:21:34.975Z,100231.26
2022-07-25T00:22:37.948Z,100226.55
2022-07-25T00:23:41.019Z,100221.83
2022-07-25T00:24:44.073Z,100224.88
2022-07-25T00:25:47.043Z,100218.00
2022-07-25T00:26:50.221Z,100221.34
2022-07-25T00:27:53.394Z,100217.22
2022-07-25T00:28:56.262Z,100224.98
2022-07-25T00:29:59.214Z,100223.33
2022-07-25T00:31:02.325Z,100218.61
2022-07-25T00:32:05.765Z,100223.33
2022-07-25T00:33:08.739Z,100222.50
2022-07-25T00:34:11.724Z,100224.75
2022-07-25T00:35:14.708Z,100230.03
2022-07-25T00:36:18.783Z,100225.08
2022-07-25T00:37:21.641Z,100232.02
2022-07-25T00:38:24.605Z,100229.01
2022-07-25T00:39:27.794Z,100230.71
2022-07-25T00:40:32.550Z,100229.88
2022-07-25T00:41:36.006Z,100226.00
2022-07-25T00:42:39.143Z,100226.00
2022-07-25T00:43:45.250Z,100232.06
2022-07-25T00:44:48.366Z,100228.17
2022-07-25T00:45:51.428Z,100224.34
2022-07-25T00:46:55.395Z,100224.34
2022-07-25T00:47:58.584Z,100229.88
2022-07-25T00:49:01.638Z,100228.50
2022-07-25T00:50:05.238Z,100226.84
2022-07-25T00:51:09.403Z,100229.92
2022-07-25T00:52:13.350Z,100224.66
2022-07-25T00:53:16.538Z,100223.84
2022-07-25T00:54:20.225Z,100223.84
2022-07-25T00:55:24.692Z,100229.09
2022-07-25T00:56:29.373Z,100217.73
2022-07-25T00:57:32.353Z,100226.56
2022-07-25T00:58:35.527Z,100222.69
2022-07-25T00:59:38.533Z,100222.40
2022-07-25T01:00:41.815Z,100226.83
2022-07-25T01:01:47.255Z,100223.75
2022-07-25T01:02:50.915Z,100216.55
2022-07-25T01:03:54.271Z,100230.12
2022-07-25T01:04:58.135Z,100221.52
2022-07-25T01:06:01.421Z,100216.81
2022-07-25T01:07:04.792Z,100222.88
2022-07-25T01:08:08.877Z,100216.22
2022-07-25T01:09:13.691Z,100218.71
2022-07-25T01:10:17.384Z,100221.20
2022-07-25T01:11:21.673Z,100226.42
2022-07-25T01:12:24.893Z,100223.37
2022-07-25T01:13:27.876Z,100222.86
2022-07-25T01:14:31.105Z,100228.68
2022-07-25T01:15:34.232Z,100234.78
2022-07-25T01:16:37.133Z,100236.20
2022-07-25T01:17:40.182Z,100233.17
2022-07-25T01:18:43.250Z,100230.16
2022-07-25T01:19:46.652Z,100236.30
2022-07-25T01:20:49.734Z,100232.97
2022-07-25T01:21:52.794Z,100233.56
2022-07-25T01:22:56.908Z,100234.95
2022-07-25T01:24:00.032Z,100229.70
2022-07-25T01:25:03.148Z,100229.70
2022-07-25T01:26:06.740Z,100233.30
2022-07-25T01:27:09.842Z,100227.48
2022-07-25T01:28:14.821Z,100233.84
2022-07-25T01:29:17.830Z,100231.91
2022-07-25T01:30:23.923Z,100226.37
2022-07-25T01:31:27.205Z,100233.02
2022-07-25T01:32:30.323Z,100232.47
2022-07-25T01:33:33.317Z,100231.95
2022-07-25T01:34:36.196Z,100236.66
2022-07-25T01:35:43.420Z,100232.23
2022-07-25T01:36:44.296Z,100231.67
2022-07-25T01:37:47.552Z,100235.28
2022-07-25T01:38:50.530Z,100235.28
2022-07-25T01:39:55.417Z,100238.05
2022-07-25T01:40:58.480Z,100236.39
2022-07-25T01:42:01.436Z,100239.16
2022-07-25T01:43:05.556Z,100238.05
2022-07-25T01:44:09.002Z,100243.59
2022-07-25T01:45:13.266Z,100240.30
2022-07-25T01:46:16.828Z,100250.82
2022-07-25T01:47:19.859Z,100243.08
2022-07-25T01:48:22.847Z,100240.61
2022-07-25T01:49:26.215Z,100240.89
2022-07-25T01:50:30.709Z,100240.89
2022-07-25T01:51:33.768Z,100241.72
2022-07-25T01:52:37.451Z,100239.50
2022-07-25T01:53:40.440Z,100251.38
2022-07-25T01:54:45.248Z,100238.09
2022-07-25T01:55:48.331Z,100255.25
2022-07-25T01:56:51.319Z,100243.06
2022-07-25T01:57:54.687Z,100245.52
2022-07-25T01:58:57.867Z,100244.41
2022-07-25T02:00:01.183Z,100243.59
2022-07-25T02:01:04.246Z,100237.22
2022-07-25T02:02:08.401Z,100233.93
2022-07-25T02:03:29.433Z,100234.20
2022-07-25T02:04:32.571Z,100237.02
2022-07-25T02:05:35.584Z,100233.14
2022-07-25T02:06:40.508Z,100242.00
2022-07-25T02:07:43.495Z,100235.12
2022-07-25T02:08:46.601Z,100243.70
2022-07-25T02:09:53.415Z,100239.55
2022-07-25T02:10:54.928Z,100238.72
2022-07-25T02:11:58.165Z,100240.37
2022-07-25T02:13:01.752Z,100242.05
2022-07-25T02:14:05.137Z,100236.51
2022-07-25T02:15:08.992Z,100245.92
2022-07-25T02:16:12.258Z,100242.62
2022-07-25T02:17:15.878Z,100244.56
2022-07-25T02:18:19.058Z,100237.65
2022-07-25T02:19:22.159Z,100243.77
2022-07-25T02:20:25.429Z,100242.11
2022-07-25T02:21:29.626Z,100244.05
2022-07-25T02:22:32.593Z,100239.62
2022-07-25T02:23:36.351Z,100240.73
2022-07-25T02:24:39.588Z,100238.79
2022-07-25T02:25:42.708Z,100240.45
2022-07-25T02:26:45.778Z,100240.45
2022-07-25T02:27:48.850Z,100236.58
2022-07-25T02:28:51.953Z,100232.70
2022-07-25T02:29:54.804Z,100243.77
2022-07-25T02:30:58.016Z,100237.41
2022-07-25T02:32:14.784Z,100234.64
2022-07-25T02:33:17.824Z,100240.45
2022-07-25T02:34:21.070Z,100233.25
2022-07-25T02:35:24.261Z,100237.95
2022-07-25T02:36:27.334Z,100235.50
2022-07-25T02:37:30.599Z,100241.03
2022-07-25T02:38:33.628Z,100241.03
2022-07-25T02:39:36.589Z,100238.27
2022-07-25T02:40:39.694Z,100239.09
2022-07-25T02:41:43.420Z,100245.16
2022-07-25T02:42:46.620Z,100231.87
2022-07-25T02:43:49.598Z,100240.42
2022-07-25T02:44:52.660Z,100242.62
2022-07-25T02:45:55.724Z,100242.05
2022-07-25T02:46:58.847Z,100240.66
2022-07-25T02:48:01.807Z,100236.75
2022-07-25T02:49:05.055Z,100242.00
2022-07-25T02:50:09.273Z,100237.58
2022-07-25T02:51:14.177Z,100234.81
2022-07-25T02:52:17.309Z,100238.41
2022-07-25T02:53:39.918Z,100238.41
2022-07-25T02:54:25.295Z,100231.20
2022-07-25T02:55:28.361Z,100229.27
2022-07-25T02:56:33.050Z,100226.50
2022-07-25T02:57:36.002Z,100224.56
2022-07-25T02:58:39.410Z,100228.44
2022-07-25T02:59:42.857Z,100218.20
2022-07-25T03:00:46.219Z,100218.20
2022-07-25T03:01:49.477Z,100221.80
2022-07-25T03:02:52.997Z,100225.39
2022-07-25T03:03:56.941Z,100213.21
2022-07-25T03:04:59.970Z,100209.33
2022-07-25T03:06:02.965Z,100213.77
2022-07-25T03:07:05.915Z,100222.34
2022-07-25T03:08:09.022Z,100217.88
2022-07-25T03:09:12.195Z,100210.95
2022-07-25T03:10:15.771Z,100219.21
2022-07-25T03:11:19.162Z,100224.98
2022-07-25T03:12:22.330Z,100217.75
2022-07-25T03:13:25.314Z,100220.78
2022-07-25T03:14:28.369Z,100217.14
2022-07-25T03:15:31.334Z,100219.32
2022-07-25T03:16:34.479Z,100220.70
2022-07-25T03:17:38.172Z,100225.64
2022-07-25T03:18:41.068Z,100221.77
2022-07-25T03:19:44.115Z,100220.10
2022-07-25T03:20:47.271Z,100221.77
2022-07-25T03:21:50.135Z,100220.94
2022-07-25T03:22:53.605Z,100217.88
2022-07-25T03:23:56.705Z,100219.54
2022-07-25T03:24:59.982Z,100222.55
2022-07-25T03:26:03.612Z,100221.98
2022-07-25T03:27:06.702Z,100220.55
2022-07-25T03:28:09.672Z,100217.22
2022-07-25T03:29:12.789Z,100220.50
2022-07-25T03:30:16.345Z,100218.28
2022-07-25T03:31:19.511Z,100218.00
2022-07-25T03:32:22.775Z,100220.17
2022-07-25T03:33:25.881Z,100216.83
2022-07-25T03:34:28.999Z,100216.23
2022-07-25T03:35:32.120Z,100214.84
2022-07-25T03:36:35.071Z,100217.61
2022-07-25T03:37:38.043Z,100222.33
2022-07-25T03:38:41.020Z,100213.18
2022-07-25T03:39:44.219Z,100215.95
2022-07-25T03:42:13.166Z,100219.84
2022-07-25T03:43:16.346Z,100224.55
2022-07-25T03:45:22.796Z,100223.48
2022-07-25T03:46:26.255Z,100225.72
2022-07-25T03:47:29.253Z,100223.23
2022-07-25T03:48:32.476Z,100224.38
2022-07-25T03:49:35.499Z,100228.25
2022-07-25T03:50:38.892Z,100228.25
2022-07-25T03:51:41.967Z,100225.77
2022-07-25T03:52:45.292Z,100228.81
2022-07-25T03:54:03.704Z,100229.93
2022-07-25T03:55:09.013Z,100230.77
2022-07-25T03:56:13.200Z,100235.79
2022-07-25T03:57:16.044Z,100227.47
2022-07-25T03:58:19.000Z,100229.41
2022-07-25T03:59:21.922Z,100227.47
2022-07-25T04:00:25.332Z,100228.30
2022-07-25T04:01:28.444Z,100234.67
2022-07-25T04:02:31.732Z,100231.59
2022-07-25T04:03:34.932Z,100234.08
2022-07-25T04:04:38.019Z,100232.69
2022-07-25T04:05:47.025Z,100232.69
2022-07-25T04:06:46.757Z,100226.83
2022-07-25T04:07:49.832Z,100223.23
2022-07-25T04:08:53.800Z,100230.42
2022-07-25T04:09:57.289Z,100231.26
2022-07-25T04:11:00.254Z,100225.72
2022-07-25T04:12:03.552Z,100228.20
2022-07-25T04:13:06.673Z,100230.69
2022-07-25T04:14:10.422Z,100228.44
2022-07-25T04:15:13.672Z,100232.58
2022-07-25T04:16:22.427Z,100223.16
2022-07-25T04:17:24.338Z,100226.44
2022-07-25T04:18:28.987Z,100223.92
2022-07-25T04:19:32.416Z,100216.13
2022-07-25T04:20:36.940Z,100224.98
2022-07-25T04:21:39.993Z,100220.78
2022-07-25T04:22:46.775Z,100224.97
2022-07-25T04:23:48.979Z,100218.30
2022-07-25T04:24:51.892Z,100213.27
2022-07-25T04:25:55.913Z,100215.76
2022-07-25T04:26:59.013Z,100209.93
2022-07-25T04:28:01.904Z,100207.98
2022-07-25T04:29:05.060Z,100214.05
2022-07-25T04:30:09.988Z,100215.70
2022-07-25T04:31:13.407Z,100216.53
2022-07-25T04:32:23.132Z,100215.42
2022-07-25T04:33:23.483Z,100216.25
2022-07-25T04:34:26.629Z,100219.53
2022-07-25T04:35:29.587Z,100213.98
2022-07-25T04:36:32.629Z,100214.53
2022-07-25T04:37:36.818Z,100220.62
2022-07-25T04:38:39.955Z,100216.70
2022-07-25T04:39:42.934Z,100207.27
2022-07-25T04:40:46.718Z,100209.20
2022-07-25T04:41:49.889Z,100212.81
2022-07-25T04:42:52.894Z,100217.23
2022-07-25T04:43:55.975Z,100206.69
2022-07-25T04:44:58.971Z,100206.69
2022-07-25T04:46:02.324Z,100211.63
2022-07-25T04:47:05.661Z,100205.80
2022-07-25T04:48:08.831Z,100206.63
2022-07-25T04:49:11.891Z,100207.97
2022-07-25T04:50:15.482Z,100216.00
2022-07-25T04:51:19.063Z,100204.33
2022-07-25T04:52:22.225Z,100206.50
2022-07-25T04:53:25.184Z,100205.09
2022-07-25T04:54:28.615Z,100202.83
2022-07-25T04:55:32.227Z,100203.59
2022-07-25T04:56:35.223Z,100201.36
2022-07-25T04:57:38.180Z,100200.75
2022-07-25T04:58:41.164Z,100199.84
2022-07-25T04:59:44.155Z,100206.48
2022-07-25T05:00:47.270Z,100197.55
2022-07-25T05:01:50.325Z,100199.73
2022-07-25T05:02:53.604Z,100201.91
2022-07-25T05:03:56.574Z,100199.34
2022-07-25T05:04:59.827Z,100200.71
2022-07-25T05:06:04.869Z,100204.56
2022-07-25T05:07:07.967Z,100202.03
2022-07-25T05:08:10.980Z,100201.42
2022-07-25T05:09:14.050Z,100205.24
2022-07-25T05:10:17.675Z,100210.21
2022-07-25T05:11:20.920Z,100210.42
2022-07-25T05:12:23.955Z,100207.06
2022-07-25T05:13:26.997Z,100210.34
2022-07-25T05:14:29.845Z,100215.31
2022-07-25T05:15:32.833Z,100208.86
2022-07-25T05:16:35.802Z,100216.57
2022-07-25T05:17:38.831Z,100207.66
2022-07-25T05:18:41.770Z,100203.43
2022-07-25T05:19:44.837Z,100207.57
2022-07-25T05:20:47.778Z,100205.00
2022-07-25T05:21:50.960Z,100206.37
2022-07-25T05:22:54.127Z,100199.36
2022-07-25T05:23:57.014Z,100206.28
2022-07-25T05:25:01.782Z,100209.27
2022-07-25T05:26:04.929Z,100203.92
2022-07-25T05:27:08.248Z,100200.84
2022-07-25T05:28:11.222Z,100199.92
2022-07-25T05:29:14.174Z,100195.44
2022-07-25T05:30:18.869Z,100202.33
2022-07-25T05:31:21.876Z,100201.73
2022-07-25T05:32:24.820Z,100195.88
2022-07-25T05:33:27.875Z,100195.29
2022-07-25T05:34:30.996Z,100191.88
2022-07-25T05:35:34.000Z,100196.84
2022-07-25T05:36:37.139Z,100195.70
2022-07-25T05:37:40.008Z,100195.39
2022-07-25T05:38:42.865Z,100183.98
2022-07-25T05:39:45.832Z,100192.85
2022-07-25T05:40:50.949Z,100175.55
2022-07-25T05:41:54.143Z,100186.04
2022-07-25T05:43:02.498Z,100179.88
2022-07-25T05:44:02.159Z,100181.20
2022-07-25T05:45:06.082Z,100179.78
2022-07-25T05:46:10.510Z,100181.94
2022-07-25T05:47:13.849Z,100183.00
2022-07-25T05:48:17.035Z,100175.98
2022-07-25T05:49:20.354Z,100178.98
2022-07-25T05:50:24.491Z,100175.58
2022-07-25T05:51:27.824Z,100176.93
2022-07-25T05:52:30.917Z,100176.30
2022-07-25T05:53:34.000Z,100169.31
2022-07-25T05:54:37.069Z,100174.23
2022-07-25T05:55:40.261Z,100180.00
2022-07-25T05:56:44.307Z,100169.09
2022-07-25T05:57:47.308Z,100167.64
2022-07-25T05:58:50.185Z,100167.86
2022-07-25T05:59:53.168Z,100170.87
2022-07-25T06:00:57.169Z,100166.66
2022-07-25T06:02:01.729Z,100167.67
2022-07-25T06:03:05.466Z,100167.04
2022-07-25T06:04:09.116Z,100163.31
2022-07-25T06:05:12.340Z,100167.98
2022-07-25T06:06:17.143Z,100167.03
2022-07-25T06:07:20.219Z,100164.97
2022-07-25T06:08:23.446Z,100162.37
2022-07-25T06:09:27.053Z,100166.69
2022-07-25T06:10:31.276Z,100167.40
2022-07-25T06:11:36.014Z,100154.19
2022-07-25T06:12:40.952Z,100160.77
2022-07-25T06:13:44.570Z,100155.41
2022-07-25T06:14:47.622Z,100156.11
2022-07-25T06:15:50.729Z,100156.11
2022-07-25T06:16:53.973Z,100158.90
2022-07-25T06:17:56.947Z,100159.39
2022-07-25T06:19:00.815Z,100154.64
2022-07-25T06:20:04.638Z,100154.34
2022-07-25T06:21:07.676Z,100159.60
2022-07-25T06:22:10.935Z,100150.91
2022-07-25T06:23:14.229Z,100143.38
2022-07-25T06:24:17.504Z,100145.03
2022-07-25T06:25:21.349Z,100144.45
2022-07-25T06:26:24.744Z,100140.19
2022-07-25T06:27:29.485Z,100140.19
2022-07-25T06:28:32.874Z,100144.31
2022-07-25T06:29:36.842Z,100137.58
2022-07-25T06:30:44.298Z,100143.36
2022-07-25T06:31:47.650Z,100139.44
2022-07-25T06:32:50.780Z,100142.72
2022-07-25T06:33:53.974Z,100144.37
2022-07-25T06:34:57.049Z,100140.94
2022-07-25T06:36:00.219Z,100133.92
2022-07-25T06:37:03.290Z,100134.44
2022-07-25T06:38:06.365Z,100139.67
2022-07-25T06:39:09.528Z,100131.00
2022-07-25T06:40:14.098Z,100135.13
2022-07-25T06:41:17.217Z,100128.39
2022-07-25T06:42:20.447Z,100126.63
2022-07-25T06:43:25.507Z,100117.31
2022-07-25T06:44:28.581Z,100117.31
2022-07-25T06:45:31.603Z,100120.27
2022-07-25T06:46:36.079Z,100121.92
2022-07-25T06:47:40.813Z,100121.61
2022-07-25T06:48:43.849Z,100121.30
2022-07-25T06:49:46.975Z,100124.58
2022-07-25T06:50:50.779Z,100125.09
2022-07-25T06:51:53.780Z,100120.34
2022-07-25T06:52:56.983Z,100117.20
2022-07-25T06:54:00.523Z,100118.23
2022-07-25T06:55:05.915Z,100119.55
2022-07-25T06:56:11.297Z,100121.05
2022-07-25T06:57:14.930Z,100121.05
2022-07-25T06:58:17.973Z,100128.45
2022-07-25T06:59:22.855Z,100122.77
2022-07-25T07:00:26.144Z,100128.55
2022-07-25T07:01:29.695Z,100123.13
2022-07-25T07:02:32.907Z,100123.30
2022-07-25T07:03:37.970Z,100119.88
2022-07-25T07:04:41.728Z,100119.22
2022-07-25T07:05:44.817Z,100116.63
2022-07-25T07:06:48.082Z,100120.41
2022-07-25T07:07:51.791Z,100118.61
2022-07-25T07:08:55.564Z,100118.30
2022-07-25T07:09:58.827Z,100118.81
2022-07-25T07:11:02.517Z,100117.32
2022-07-25T07:12:06.206Z,100116.19
2022-07-25T07:13:14.809Z,100121.93
2022-07-25T07:14:18.082Z,100110.13
2022-07-25T07:15:21.329Z,100112.27
2022-07-25T07:16:24.555Z,100118.04
2022-07-25T07:17:27.560Z,100115.41
2022-07-25T07:18:30.546Z,100118.70
2022-07-25T07:19:33.636Z,100117.73
2022-07-25T07:20:38.235Z,100123.79
2022-07-25T07:21:42.064Z,100117.28
2022-07-25T07:22:46.764Z,100118.27
2022-07-25T07:23:53.403Z,100114.49
2022-07-25T07:24:55.600Z,100111.86
2022-07-25T07:25:58.887Z,100114.02
2022-07-25T07:27:02.432Z,100112.20
2022-07-25T07:28:06.064Z,100115.16
2022-07-25T07:29:09.520Z,100110.89
2022-07-25T07:30:20.845Z,100110.58
2022-07-25T07:31:21.888Z,100107.44
2022-07-25T07:32:24.963Z,100110.73
2022-07-25T07:33:28.129Z,100102.86
2022-07-25T07:34:31.079Z,100111.71
2022-07-25T07:35:35.431Z,100105.80
2022-07-25T07:37:04.988Z,100105.48
2022-07-25T07:38:08.600Z,100103.16
2022-07-25T07:39:11.722Z,100100.70
2022-07-25T07:40:16.910Z,100094.47
2022-07-25T07:41:20.902Z,100098.24
2022-07-25T07:42:24.536Z,100093.63
2022-07-25T07:43:30.369Z,100093.45
2022-07-25T07:44:33.510Z,100092.84
2022-07-25T07:45:36.506Z,100093.81
2022-07-25T07:46:39.673Z,100092.00
2022-07-25T07:47:42.870Z,100090.17
2022-07-25T07:48:46.488Z,100095.12
2022-07-25T07:49:50.435Z,100097.23
2022-07-25T07:50:53.758Z,100089.67
2022-07-25T07:51:56.738Z,100089.34
2022-07-25T07:53:00.125Z,100090.17
2022-07-25T07:54:21.765Z,100087.84
2022-07-25T07:55:43.429Z,100084.72
2022-07-25T07:56:46.488Z,100087.20
2022-07-25T07:57:49.673Z,100081.28
2022-07-25T07:58:52.559Z,100086.52
2022-07-25T07:59:55.652Z,100086.19
2022-07-25T08:00:59.552Z,100081.09
2022-07-25T08:02:02.872Z,100078.45
2022-07-25T08:03:08.121Z,100075.33
2022-07-25T08:04:11.452Z,100084.68
2022-07-25T08:05:23.232Z,100075.96
2022-07-25T08:06:27.923Z,100076.10
2022-07-25T08:07:30.933Z,100080.22
2022-07-25T08:08:33.892Z,100075.09
2022-07-25T08:09:37.024Z,100070.00
2022-07-25T08:10:43.282Z,100068.85
2022-07-25T08:11:46.263Z,100069.67
2022-07-25T08:12:49.324Z,100072.61
2022-07-25T08:13:52.403Z,100073.11
2022-07-25T08:14:55.290Z,100067.16
2022-07-25T08:16:00.415Z,100077.19
2022-07-25T08:17:03.541Z,100064.88
2022-07-25T08:18:06.690Z,100073.28
2022-07-25T08:19:11.609Z,100073.28
2022-07-25T08:20:36.940Z,100069.62
2022-07-25T08:21:20.022Z,100074.92
2022-07-25T08:22:23.359Z,100080.19
2022-07-25T08:23:27.293Z,100075.06
2022-07-25T08:24:30.356Z,100079.18
2022-07-25T08:25:34.881Z,100074.05
2022-07-25T08:26:38.687Z,100076.52
2022-07-25T08:27:41.973Z,100069.77
2022-07-25T08:28:44.883Z,100072.56
2022-07-25T08:29:47.952Z,100068.95
2022-07-25T08:30:51.692Z,100072.56
2022-07-25T08:31:54.755Z,100068.95
2022-07-25T08:33:00.669Z,100078.16
2022-07-25T08:34:04.202Z,100071.75
2022-07-25T08:35:11.541Z,100075.70
2022-07-25T08:36:14.060Z,100074.05
2022-07-25T08:37:17.033Z,100068.95
2022-07-25T08:38:25.827Z,100069.44
2022-07-25T08:39:29.191Z,100079.12
2022-07-25T08:40:33.073Z,100075.31
2022-07-25T08:41:39.719Z,100071.53
2022-07-25T08:42:43.249Z,100072.48
2022-07-25T08:43:49.520Z,100071.47
2022-07-25T08:44:59.866Z,100066.82
2022-07-25T08:46:05.491Z,100065.47
2022-07-25T08:47:09.702Z,100059.67
2022-07-25T08:48:17.503Z,100055.84
2022-07-25T08:49:20.601Z,100062.07
2022-07-25T08:50:26.799Z,100061.11
2022-07-25T08:51:31.935Z,100062.88
2022-07-25T08:52:35.177Z,100055.77
2022-07-25T08:53:39.020Z,100055.55
2022-07-25T08:54:43.832Z,100058.52
2022-07-25T08:55:48.048Z,100052.22
2022-07-25T08:56:51.370Z,100055.97
2022-07-25T08:57:54.904Z,100055.62
2022-07-25T08:58:58.534Z,100062.06
2022-07-25T09:00:02.415Z,100053.16
2022-07-25T09:01:06.575Z,100054.69
2022-07-25T09:02:14.123Z,100051.76
2022-07-25T09:03:17.395Z,100061.65
2022-07-25T09:04:21.726Z,100057.53
2022-07-25T09:05:26.038Z,100063.83
2022-07-25T09:06:29.245Z,100060.41
2022-07-25T09:07:38.819Z,100060.41
2022-07-25T09:08:58.889Z,100058.31
2022-07-25T09:10:17.745Z,100059.27
2022-07-25T09:11:33.334Z,100057.86
2022-07-25T09:12:36.569Z,100052.92
2022-07-25T09:13:41.375Z,100068.44
2022-07-25T09:14:45.315Z,100057.08
2022-07-25T09:15:51.218Z,100064.19
2022-07-25T09:16:56.056Z,100059.25
2022-07-25T09:18:01.931Z,100053.65
2022-07-25T09:19:11.384Z,100053.65
2022-07-25T09:20:18.500Z,100054.14
2022-07-25T09:21:21.085Z,100051.97
2022-07-25T09:22:24.187Z,100051.27
2022-07-25T09:23:33.016Z,100056.67
2022-07-25T09:24:36.003Z,100052.88
2022-07-25T09:25:39.203Z,100047.56
2022-07-25T09:26:49.817Z,100044.92
2022-07-25T09:27:53.033Z,100045.05
2022-07-25T09:28:56.472Z,100046.82
2022-07-25T09:29:59.699Z,100042.66
2022-07-25T09:31:02.727Z,100044.91
2022-07-25T09:32:22.791Z,100040.74
2022-07-25T09:33:28.150Z,100035.75
2022-07-25T09:34:37.662Z,100034.38
2022-07-25T09:35:40.946Z,100036.48
2022-07-25T09:36:53.960Z,100034.16
2022-07-25T09:38:11.296Z,100038.24
2022-07-25T09:39:14.477Z,100039.89
2022-07-25T09:40:19.451Z,100037.42
2022-07-25T09:41:24.864Z,100041.87
2022-07-25T09:42:35.322Z,100033.46
2022-07-25T09:43:40.765Z,100040.71
2022-07-25T09:44:44.105Z,100036.75
2022-07-25T09:45:51.731Z,100032.79
2022-07-25T09:46:58.455Z,100040.16
2022-07-25T09:48:04.241Z,100027.11
2022-07-25T09:49:09.158Z,100032.84
2022-07-25T09:50:12.854Z,100038.93
2022-07-25T09:51:15.941Z,100034.63
2022-07-25T09:52:19.062Z,100038.38
2022-07-25T09:53:22.214Z,100040.02
2022-07-25T09:54:25.360Z,100042.45
2022-07-25T09:55:30.215Z,100040.13
2022-07-25T09:56:35.166Z,100035.34
2022-07-25T09:57:38.174Z,100043.42
2022-07-25T09:58:41.034Z,100037.93
2022-07-25T09:59:44.352Z,100039.23
2022-07-25T10:00:47.673Z,100047.77
2022-07-25T10:02:00.230Z,100041.81
2022-07-25T10:03:29.369Z,100033.03
2022-07-25T10:04:48.216Z,100032.02
2022-07-25T10:07:11.806Z,100026.30
2022-07-25T10:08:15.226Z,100022.43
2022-07-25T10:09:18.962Z,100028.16
2022-07-25T10:10:33.998Z,100024.66
2022-07-25T10:11:37.174Z,100028.77
2022-07-25T10:12:40.083Z,100029.73
2022-07-25T10:13:43.197Z,100030.55
2022-07-25T10:15:06.464Z,100023.30
2022-07-25T10:16:17.238Z,100028.09
2022-07-25T10:17:21.270Z,100030.90
2022-07-25T10:18:27.486Z,100033.70
2022-07-25T10:19:51.122Z,100026.45
2022-07-25T10:20:55.878Z,100023.98
2022-07-25T10:21:58.813Z,100020.70
2022-07-25T10:23:02.894Z,100025.00
2022-07-25T10:24:08.992Z,100022.09
2022-07-25T10:25:18.114Z,100026.05
2022-07-25T10:26:21.697Z,100023.48
2022-07-25T10:27:24.917Z,100023.37
2022-07-25T10:28:43.440Z,100028.84
2022-07-25T10:29:54.355Z,100024.77
2022-07-25T10:30:58.516Z,100023.00
2022-07-25T10:32:12.721Z,100025.66
2022-07-25T10:33:19.281Z,100025.55
2022-07-25T10:34:32.888Z,100025.06
2022-07-25T10:35:37.067Z,100022.97
2022-07-25T10:36:48.665Z,100024.13
2022-07-25T10:37:54.244Z,100013.59
2022-07-25T10:38:59.135Z,100013.14
2022-07-25T10:40:03.438Z,100020.73
2022-07-25T10:41:08.548Z,100019.09
2022-07-25T10:42:16.169Z,100027.83
2022-07-25T10:43:21.428Z,100013.36
2022-07-25T10:44:29.687Z,100015.34
2022-07-25T10:45:39.471Z,100008.09
2022-07-25T10:46:44.315Z,100013.36
2022-07-25T10:47:53.752Z,100012.54
2022-07-25T10:48:59.043Z,100009.40
2022-07-25T10:50:22.036Z,100015.80
2022-07-25T10:51:13.271Z,100005.89
2022-07-25T10:52:17.662Z,100010.00
2022-07-25T10:53:45.063Z,100014.41
2022-07-25T10:54:57.613Z,100019.68
2022-07-25T10:56:06.888Z,100003.68
2022-07-25T10:57:16.421Z,100008.47
2022-07-25T10:58:21.365Z,100005.66
2022-07-25T10:59:38.376Z,100007.30
2022-07-25T11:00:44.662Z,100006.48
2022-07-25T11:01:50.344Z,100003.34
2022-07-25T11:02:57.764Z,100002.52
2022-07-25T11:04:06.206Z,100005.33
2022-07-25T11:05:09.522Z,100005.78
2022-07-25T11:06:15.532Z,100001.47
2022-07-25T11:07:18.569Z,99993.55
2022-07-25T11:08:32.642Z,99994.81
2022-07-25T11:09:36.106Z,99998.10
2022-07-25T11:10:39.644Z,99995.75
2022-07-25T11:11:46.851Z,99992.27
2022-07-25T11:12:50.090Z,99999.52
2022-07-25T11:13:53.230Z,99999.97
2022-07-25T11:15:00.760Z,99998.80
2022-07-25T11:16:04.381Z,99994.84
2022-07-25T11:17:18.112Z,99997.64
2022-07-25T11:18:36.042Z,99996.93
2022-07-25T11:19:39.191Z,99993.30
2022-07-25T11:20:42.305Z,99994.13
2022-07-25T11:21:49.382Z,99992.14
2022-07-25T11:22:54.695Z,99990.98
2022-07-25T11:23:57.695Z,99985.85
2022-07-25T11:25:01.784Z,99993.89
2022-07-25T11:26:10.643Z,99989.93
2022-07-25T11:27:28.452Z,99987.95
2022-07-25T11:28:39.640Z,99981.98
2022-07-25T11:29:42.566Z,99980.83
2022-07-25T11:30:45.523Z,99981.28
2022-07-25T11:31:53.388Z,99984.91
2022-07-25T11:32:59.020Z,99980.12
2022-07-25T11:34:02.038Z,99984.91
2022-07-25T11:35:06.042Z,99984.45
2022-07-25T11:36:10.597Z,99986.78
2022-07-25T11:37:14.965Z,99977.55
2022-07-25T11:38:18.659Z,99980.69
2022-07-25T11:39:22.100Z,99980.69
2022-07-25T11:40:27.171Z,99981.52
2022-07-25T11:41:31.383Z,99979.53
2022-07-25T11:42:42.898Z,99986.44
2022-07-25T11:43:48.289Z,99972.04
2022-07-25T11:44:52.694Z,99975.66
2022-07-25T11:45:58.787Z,99969.72
2022-07-25T11:47:04.083Z,99982.23
2022-07-25T11:48:12.994Z,99982.23
2022-07-25T11:49:16.144Z,99971.02
2022-07-25T11:50:24.465Z,99977.79
2022-07-25T11:51:31.141Z,99975.33
2022-07-25T11:52:37.225Z,99982.09
2022-07-25T11:53:42.319Z,99980.45
2022-07-25T11:54:54.173Z,99976.86
2022-07-25T11:55:57.494Z,99976.86
2022-07-25T11:57:00.778Z,99978.84
2022-07-25T11:58:04.767Z,99977.66
2022-07-25T11:59:08.153Z,99975.22
2022-07-25T12:00:19.210Z,99981.98
2022-07-25T12:01:22.231Z,99973.47
2022-07-25T12:02:30.505Z,99977.30
2022-07-25T12:03:37.313Z,99979.99
2022-07-25T12:04:40.434Z,99974.27
2022-07-25T12:05:44.317Z,99975.78
2022-07-25T12:06:50.355Z,99972.86
2022-07-25T12:07:54.630Z,99976.01
2022-07-25T12:08:57.678Z,99976.23
2022-07-25T12:10:01.025Z,99970.52
2022-07-25T12:11:04.244Z,99978.45
2022-07-25T12:12:07.703Z,99983.12
2022-07-25T12:13:23.816Z,99977.73
2022-07-25T12:14:26.824Z,99978.75
2022-07-25T12:15:32.642Z,99982.11
2022-07-25T12:16:36.363Z,99976.73
2022-07-25T12:17:39.991Z,99977.29
2022-07-25T12:18:43.207Z,99977.52
2022-07-25T12:19:46.979Z,99982.52
2022-07-25T12:20:50.171Z,99980.75
2022-07-25T12:21:53.617Z,99982.58
2022-07-25T12:22:59.686Z,99979.99